createdAt,value
2022-10-05T00:01:05.772Z,5.00
2022-10-05T00:03:40.375Z,5.00
2022-10-05T00:06:09.452Z,5.10
2022-10-05T00:08:36.150Z,5.00
2022-10-05T00:11:02.856Z,5.00
2022-10-05T00:13:30.624Z,5.00
2022-10-05T00:16:17.820Z,5.00
2022-10-05T00:18:46.929Z,4.90
2022-10-05T00:21:18.392Z,4.90
2022-10-05T00:23:45.014Z,4.90
2022-10-05T00:26:13.906Z,4.90
2022-10-05T00:28:42.779Z,4.90
2022-10-05T00:31:17.951Z,4.80
2022-10-05T00:33:44.964Z,4.80
2022-10-05T00:36:11.583Z,4.80
2022-10-05T00:38:39.655Z,4.80
2022-10-05T00:41:12.797Z,4.80
2022-10-05T00:43:52.880Z,4.80
2022-10-05T00:46:19.502Z,4.70
2022-10-05T00:48:53.803Z,4.70
2022-10-05T00:51:23.940Z,4.70
2022-10-05T00:54:06.481Z,4.70
2022-10-05T00:56:46.713Z,4.70
2022-10-05T00:59:13.629Z,4.70
2022-10-05T01:01:43.437Z,4.60
2022-10-05T01:04:28.947Z,4.60
2022-10-05T01:07:16.487Z,4.60
2022-10-05T01:09:49.083Z,4.60
2022-10-05T01:12:22.710Z,4.60
2022-10-05T01:14:57.557Z,4.60
2022-10-05T01:17:37.798Z,4.50
2022-10-05T01:20:25.781Z,4.50
2022-10-05T01:23:11.426Z,4.50
2022-10-05T01:25:49.109Z,4.50
2022-10-05T01:28:16.986Z,4.50
2022-10-05T01:30:47.891Z,4.50
2022-10-05T01:33:14.504Z,4.50
2022-10-05T01:35:59.800Z,4.50
2022-10-05T01:38:35.848Z,4.50
2022-10-05T01:41:11.919Z,4.50
2022-10-05T01:43:49.331Z,4.50
2022-10-05T01:46:38.196Z,4.50
2022-10-05T01:49:04.852Z,4.50
2022-10-05T01:51:40.323Z,4.50
2022-10-05T01:54:13.037Z,4.50
2022-10-05T01:56:43.345Z,4.50
2022-10-05T01:59:28.962Z,4.40
2022-10-05T02:01:55.690Z,4.50
2022-10-05T02:04:56.425Z,4.50
2022-10-05T02:07:13.835Z,4.50
2022-10-05T02:09:46.733Z,4.40
2022-10-05T02:12:15.693Z,4.40
2022-10-05T02:14:43.740Z,4.40
2022-10-05T02:17:14.920Z,4.40
2022-10-05T02:19:43.003Z,4.40
2022-10-05T02:22:14.679Z,4.40
2022-10-05T02:24:45.404Z,4.40
2022-10-05T02:27:14.639Z,4.40
2022-10-05T02:29:42.723Z,4.40
2022-10-05T02:32:23.933Z,4.30
2022-10-05T02:34:50.670Z,4.30
2022-10-05T02:37:36.101Z,4.30
2022-10-05T02:40:21.607Z,4.30
2022-10-05T02:42:52.209Z,4.30
2022-10-05T02:45:25.146Z,4.30
2022-10-05T02:47:54.772Z,4.30
2022-10-05T02:50:27.070Z,4.30
2022-10-05T02:53:01.724Z,4.30
2022-10-05T02:55:34.730Z,4.30
2022-10-05T02:58:20.990Z,4.30
2022-10-05T03:01:08.382Z,4.30
2022-10-05T03:03:40.467Z,4.40
2022-10-05T03:06:20.132Z,4.40
2022-10-05T03:08:58.717Z,4.50
2022-10-05T03:11:30.415Z,4.50
2022-10-05T03:14:12.370Z,4.50
2022-10-05T03:16:57.767Z,4.50
2022-10-05T03:19:47.447Z,4.50
2022-10-05T03:22:32.866Z,4.50
2022-10-05T03:25:32.800Z,4.60
2022-10-05T03:28:02.401Z,4.60
2022-10-05T03:30:33.682Z,4.60
2022-10-05T03:33:09.643Z,4.70
2022-10-05T03:35:39.449Z,4.70
2022-10-05T03:38:24.805Z,4.70
2022-10-05T03:40:55.873Z,4.80
2022-10-05T03:43:22.448Z,4.80
2022-10-05T03:46:00.502Z,4.80
2022-10-05T03:48:37.493Z,4.80
2022-10-05T03:51:12.937Z,4.80
2022-10-05T03:53:44.685Z,4.80
2022-10-05T03:56:31.609Z,4.80
2022-10-05T03:59:00.858Z,4.80
2022-10-05T04:01:34.745Z,4.80
2022-10-05T04:04:04.137Z,4.80
2022-10-05T04:06:34.518Z,4.80
2022-10-05T04:09:13.233Z,4.80
2022-10-05T04:11:46.725Z,4.80
2022-10-05T04:14:15.827Z,4.80
2022-10-05T04:16:52.481Z,4.80
2022-10-05T04:19:25.682Z,4.80
2022-10-05T04:21:57.742Z,4.90
2022-10-05T04:24:27.586Z,4.80
2022-10-05T04:27:03.331Z,4.80
2022-10-05T04:29:33.733Z,4.90
2022-10-05T04:32:23.307Z,4.80
2022-10-05T04:34:57.020Z,4.80
2022-10-05T04:37:42.097Z,4.80
2022-10-05T04:40:14.278Z,4.80
2022-10-05T04:42:51.779Z,4.80
2022-10-05T04:45:27.320Z,4.80
2022-10-05T04:47:59.812Z,4.70
2022-10-05T04:50:45.408Z,4.70
2022-10-05T04:53:42.576Z,4.70
2022-10-05T04:56:16.116Z,4.60
2022-10-05T04:58:42.805Z,4.60
2022-10-05T05:01:12.236Z,4.50
2022-10-05T05:03:41.847Z,4.50
2022-10-05T05:06:18.499Z,4.40
2022-10-05T05:09:04.071Z,4.40
2022-10-05T05:11:37.151Z,4.40
2022-10-05T05:14:19.507Z,4.30
2022-10-05T05:16:51.676Z,4.30
2022-10-05T05:19:18.395Z,4.30
2022-10-05T05:21:58.136Z,4.20
2022-10-05T05:24:27.614Z,4.20
2022-10-05T05:27:13.140Z,4.20
2022-10-05T05:29:50.463Z,4.20
2022-10-05T05:32:35.062Z,4.10
2022-10-05T05:35:04.669Z,4.20
2022-10-05T05:37:48.412Z,4.20
2022-10-05T05:40:23.409Z,4.20
2022-10-05T05:43:00.358Z,4.20
2022-10-05T05:45:33.368Z,4.20
2022-10-05T05:48:03.037Z,4.20
2022-10-05T05:50:47.859Z,4.20
2022-10-05T05:53:21.130Z,4.20
2022-10-05T05:55:56.090Z,4.20
2022-10-05T05:58:27.447Z,4.30
2022-10-05T06:00:57.405Z,4.30
2022-10-05T06:03:36.001Z,4.30
2022-10-05T06:06:05.062Z,4.30
2022-10-05T06:08:52.046Z,4.40
2022-10-05T06:11:24.333Z,4.50
2022-10-05T06:13:51.337Z,4.50
2022-10-05T06:16:18.830Z,4.60
2022-10-05T06:18:52.049Z,4.60
2022-10-05T06:21:22.686Z,4.70
2022-10-05T06:23:56.975Z,4.80
2022-10-05T06:26:30.825Z,4.90
2022-10-05T06:29:14.566Z,4.90
2022-10-05T06:31:59.978Z,5.00
2022-10-05T06:34:35.646Z,5.10
2022-10-05T06:37:04.794Z,5.20
2022-10-05T06:39:31.499Z,5.30
2022-10-05T06:42:17.076Z,5.40
2022-10-05T06:44:49.140Z,5.50
2022-10-05T06:47:27.955Z,5.70
2022-10-05T06:50:04.236Z,5.80
2022-10-05T06:52:57.655Z,6.10
2022-10-05T06:55:24.305Z,6.30
2022-10-05T06:58:09.811Z,6.40
2022-10-05T07:00:39.606Z,6.60
2022-10-05T07:03:12.407Z,6.80
2022-10-05T07:05:45.190Z,7.00
2022-10-05T07:08:15.437Z,7.20
2022-10-05T07:11:11.704Z,7.40
2022-10-05T07:13:38.289Z,7.60
2022-10-05T07:16:24.105Z,7.80
2022-10-05T07:18:59.254Z,8.00
2022-10-05T07:21:26.155Z,8.20
2022-10-05T07:23:53.219Z,8.40
2022-10-05T07:26:22.735Z,8.50
2022-10-05T07:29:10.686Z,8.70
2022-10-05T07:31:53.137Z,8.80
2022-10-05T07:34:26.459Z,9.00
2022-10-05T07:37:18.015Z,9.20
2022-10-05T07:40:00.920Z,9.30
2022-10-05T07:42:51.786Z,9.50
2022-10-05T07:45:29.721Z,9.70
2022-10-05T07:47:57.684Z,9.90
2022-10-05T07:50:42.956Z,10.10
2022-10-05T07:53:17.100Z,10.30
2022-10-05T07:55:47.283Z,10.50
2022-10-05T07:58:20.818Z,10.80
2022-10-05T08:00:56.218Z,10.90
2022-10-05T08:03:28.916Z,11.20
2022-10-05T08:05:57.796Z,11.30
2022-10-05T08:08:37.363Z,11.50
2022-10-05T08:11:09.856Z,11.70
2022-10-05T08:13:36.479Z,11.90
2022-10-05T08:16:05.047Z,12.20
2022-10-05T08:18:37.428Z,12.30
2022-10-05T08:21:14.516Z,12.50
2022-10-05T08:24:01.850Z,12.80
2022-10-05T08:26:31.519Z,13.00
2022-10-05T08:29:16.455Z,13.30
2022-10-05T08:31:46.320Z,13.40
2022-10-05T08:34:13.049Z,13.50
2022-10-05T08:40:11.632Z,13.80
2022-10-05T08:42:48.232Z,14.00
2022-10-05T08:45:41.534Z,14.20
2022-10-05T08:48:29.945Z,14.30
2022-10-05T08:51:11.702Z,14.50
2022-10-05T08:54:03.735Z,14.60
2022-10-05T08:56:30.675Z,14.70
2022-10-05T08:59:00.041Z,14.80
2022-10-05T09:01:33.855Z,14.90
2022-10-05T09:04:04.745Z,14.90
2022-10-05T09:06:43.783Z,15.00
2022-10-05T09:09:25.782Z,15.00
2022-10-05T09:12:20.049Z,15.10
2022-10-05T09:15:24.983Z,15.10
2022-10-05T09:18:03.950Z,15.20
2022-10-05T09:20:43.044Z,15.30
2022-10-05T09:23:18.516Z,15.30
2022-10-05T09:25:59.882Z,15.50
2022-10-05T09:28:29.908Z,15.60
2022-10-05T09:31:15.388Z,15.70
2022-10-05T09:34:10.747Z,15.80
2022-10-05T09:36:56.468Z,15.90
2022-10-05T09:39:41.868Z,16.00
2022-10-05T09:42:21.552Z,16.10
2022-10-05T09:45:08.502Z,16.20
2022-10-05T09:47:53.553Z,16.40
2022-10-05T09:50:40.037Z,16.50
2022-10-05T09:53:19.062Z,16.70
2022-10-05T09:55:52.270Z,16.80
2022-10-05T09:58:38.091Z,16.90
2022-10-05T10:01:33.253Z,17.10
2022-10-05T10:04:10.172Z,17.10
2022-10-05T10:06:43.688Z,17.30
2022-10-05T10:09:22.645Z,17.40
2022-10-05T10:11:49.598Z,17.60
2022-10-05T10:14:16.532Z,17.80
2022-10-05T10:16:59.603Z,17.90
2022-10-05T10:19:52.721Z,18.00
2022-10-05T10:22:42.218Z,18.00
2022-10-05T10:25:19.144Z,18.20
2022-10-05T10:27:55.153Z,18.30
2022-10-05T10:30:36.422Z,18.30
2022-10-05T10:33:22.138Z,18.30
2022-10-05T10:36:00.495Z,18.40
2022-10-05T10:38:32.096Z,18.40
2022-10-05T10:41:05.892Z,18.50
2022-10-05T10:43:39.270Z,18.60
2022-10-05T10:46:24.795Z,18.60
2022-10-05T10:49:16.878Z,18.70
2022-10-05T10:51:52.808Z,18.80
2022-10-05T10:54:28.581Z,18.90
2022-10-05T10:57:15.360Z,19.00
2022-10-05T10:59:44.943Z,19.10
2022-10-05T11:02:30.658Z,19.20
2022-10-05T11:05:15.267Z,19.20
2022-10-05T11:07:44.913Z,19.40
2022-10-05T11:10:14.309Z,19.40
2022-10-05T11:12:47.662Z,19.60
2022-10-05T11:15:33.819Z,19.60
2022-10-05T11:18:12.424Z,19.80
2022-10-05T11:20:53.873Z,19.90
2022-10-05T11:23:38.970Z,20.00
2022-10-05T11:26:17.864Z,20.00
2022-10-05T11:28:56.106Z,20.10
2022-10-05T11:31:35.433Z,20.20
2022-10-05T11:34:08.106Z,20.30
2022-10-05T11:36:42.243Z,20.30
2022-10-05T11:39:28.774Z,20.40
2022-10-05T11:42:04.322Z,20.50
2022-10-05T11:44:57.570Z,20.60
2022-10-05T11:47:32.118Z,20.70
2022-10-05T11:50:06.768Z,20.80
2022-10-05T11:52:36.230Z,20.80
2022-10-05T11:55:14.737Z,20.80
2022-10-05T11:57:57.759Z,20.80
2022-10-05T12:00:24.356Z,21.00
2022-10-05T12:02:55.272Z,21.10
2022-10-05T12:05:22.068Z,21.10
2022-10-05T12:08:08.712Z,21.20
2022-10-05T12:10:54.184Z,21.30
2022-10-05T12:13:36.138Z,21.30
2022-10-05T12:16:07.490Z,21.40
2022-10-05T12:18:39.119Z,21.50
2022-10-05T12:21:11.059Z,21.50
2022-10-05T12:23:41.493Z,21.60
2022-10-05T12:26:11.892Z,21.60
2022-10-05T12:28:44.988Z,21.80
2022-10-05T12:31:26.622Z,21.80
2022-10-05T12:33:57.469Z,21.80
2022-10-05T12:37:03.679Z,21.90
2022-10-05T12:39:37.492Z,21.90
2022-10-05T12:42:41.482Z,22.00
2022-10-05T12:45:31.921Z,22.00
2022-10-05T12:48:19.433Z,22.10
2022-10-05T12:50:49.445Z,22.10
2022-10-05T12:53:34.616Z,22.10
2022-10-05T12:56:09.419Z,22.10
2022-10-05T12:58:51.375Z,22.20
2022-10-05T13:01:20.305Z,22.20
2022-10-05T13:03:52.628Z,22.20
2022-10-05T13:06:29.436Z,22.20
2022-10-05T13:09:00.926Z,22.10
2022-10-05T13:11:31.749Z,22.10
2022-10-05T13:14:19.149Z,22.10
2022-10-05T13:16:54.752Z,22.10
2022-10-05T13:19:40.808Z,22.10
2022-10-05T13:22:16.699Z,22.10
2022-10-05T13:24:43.280Z,22.00
2022-10-05T13:27:22.555Z,22.10
2022-10-05T13:29:54.477Z,22.10
2022-10-05T13:32:24.080Z,22.00
2022-10-05T13:35:11.629Z,22.00
2022-10-05T13:37:48.655Z,22.00
2022-10-05T13:40:32.049Z,22.00
2022-10-05T13:43:14.540Z,21.90
2022-10-05T13:45:45.025Z,21.90
2022-10-05T13:48:18.656Z,21.80
2022-10-05T13:51:09.755Z,21.80
2022-10-05T13:53:39.361Z,21.70
2022-10-05T13:56:10.643Z,21.70
2022-10-05T13:58:37.271Z,21.60
2022-10-05T14:01:28.618Z,21.60
2022-10-05T14:04:16.100Z,21.50
2022-10-05T14:06:44.713Z,21.50
2022-10-05T14:09:20.404Z,21.50
2022-10-05T14:11:52.084Z,21.40
2022-10-05T14:14:31.566Z,21.30
2022-10-05T14:19:40.954Z,21.30
2022-10-05T14:22:24.329Z,21.20
2022-10-05T14:24:54.471Z,21.20
2022-10-05T14:27:33.543Z,21.20
2022-10-05T14:30:19.985Z,21.10
2022-10-05T14:32:52.244Z,21.00
2022-10-05T14:35:24.218Z,20.90
2022-10-05T14:37:53.654Z,20.90
2022-10-05T14:40:31.190Z,20.80
2022-10-05T14:42:59.698Z,20.70
2022-10-05T14:45:29.939Z,20.70
2022-10-05T14:48:00.233Z,20.60
2022-10-05T14:50:29.695Z,20.60
2022-10-05T14:53:14.385Z,20.50
2022-10-05T14:55:42.646Z,20.40
2022-10-05T14:58:28.076Z,20.40
2022-10-05T15:01:18.184Z,20.30
2022-10-05T15:04:00.433Z,20.30
2022-10-05T15:06:33.015Z,20.20
2022-10-05T15:09:18.057Z,20.10
2022-10-05T15:11:44.779Z,20.00
2022-10-05T15:14:29.817Z,20.00
2022-10-05T15:16:58.996Z,19.90
2022-10-05T15:19:47.138Z,19.80
2022-10-05T15:22:31.746Z,19.80
2022-10-05T15:25:16.636Z,19.70
2022-10-05T15:28:07.323Z,19.60
2022-10-05T15:30:36.376Z,19.50
2022-10-05T15:33:09.661Z,19.40
2022-10-05T15:35:48.022Z,19.30
2022-10-05T15:38:20.960Z,19.30
2022-10-05T15:40:47.902Z,19.20
2022-10-05T15:43:21.716Z,19.10
2022-10-05T15:45:54.754Z,19.00
2022-10-05T15:48:25.656Z,18.80
2022-10-05T15:50:57.965Z,18.80
2022-10-05T15:53:34.504Z,18.70
2022-10-05T15:56:15.926Z,18.60
2022-10-05T15:59:01.417Z,18.40
2022-10-05T16:01:43.141Z,18.30
2022-10-05T16:04:23.041Z,18.20
2022-10-05T16:07:10.076Z,18.10
2022-10-05T16:09:42.380Z,18.00
2022-10-05T16:12:13.578Z,17.90
2022-10-05T16:14:54.617Z,17.80
2022-10-05T16:17:29.007Z,17.60
2022-10-05T16:20:15.120Z,17.50
2022-10-05T16:23:01.552Z,17.40
2022-10-05T16:25:31.150Z,17.30
2022-10-05T16:28:05.639Z,17.10
2022-10-05T16:30:49.056Z,17.00
2022-10-05T16:33:23.757Z,16.80
2022-10-05T16:36:05.551Z,16.70
2022-10-05T16:38:35.056Z,16.60
2022-10-05T16:41:13.101Z,16.50
2022-10-05T16:43:49.399Z,16.30
2022-10-05T16:46:32.045Z,16.20
2022-10-05T16:49:25.471Z,16.10
2022-10-05T16:52:02.076Z,16.00
2022-10-05T16:54:29.045Z,15.90
2022-10-05T16:57:31.603Z,15.80
2022-10-05T17:00:04.535Z,15.70
2022-10-05T17:02:58.819Z,15.50
2022-10-05T17:05:42.069Z,15.50
2022-10-05T17:08:08.963Z,15.30
2022-10-05T17:10:55.652Z,15.30
2022-10-05T17:13:31.469Z,15.10
2022-10-05T17:16:24.426Z,15.00
2022-10-05T17:18:56.887Z,14.90
2022-10-05T17:21:30.946Z,14.80
2022-10-05T17:24:12.621Z,14.80
2022-10-05T17:26:46.453Z,14.70
2022-10-05T17:29:25.139Z,14.60
2022-10-05T17:32:11.373Z,14.60
2022-10-05T17:35:00.850Z,14.50
2022-10-05T17:37:27.467Z,14.30
2022-10-05T17:39:55.738Z,14.30
2022-10-05T17:42:32.090Z,14.30
2022-10-05T17:45:12.173Z,14.20
2022-10-05T17:47:59.573Z,14.10
2022-10-05T17:51:04.514Z,14.00
2022-10-05T17:53:52.809Z,14.00
2022-10-05T17:56:20.190Z,13.90
2022-10-05T17:58:46.928Z,13.80
2022-10-05T18:01:17.036Z,13.80
2022-10-05T18:03:46.191Z,13.70
2022-10-05T18:06:36.187Z,13.70
2022-10-05T18:09:22.963Z,13.60
2022-10-05T18:12:08.598Z,13.60
2022-10-05T18:14:57.209Z,13.50
2022-10-05T18:17:36.140Z,13.40
2022-10-05T18:20:13.303Z,13.40
2022-10-05T18:22:40.059Z,13.30
2022-10-05T18:25:18.847Z,13.20
2022-10-05T18:28:00.864Z,13.20
2022-10-05T18:30:32.642Z,13.10
2022-10-05T18:33:08.208Z,13.10
2022-10-05T18:36:02.387Z,13.00
2022-10-05T18:38:48.665Z,13.00
2022-10-05T18:41:35.648Z,12.90
2022-10-05T18:44:19.151Z,12.90
2022-10-05T18:47:23.381Z,12.80
2022-10-05T18:50:02.701Z,12.70
2022-10-05T18:52:32.500Z,12.70
2022-10-05T18:55:05.182Z,12.60
2022-10-05T18:57:44.155Z,12.60
2022-10-05T19:00:13.802Z,12.50
2022-10-05T19:02:42.955Z,12.40
2022-10-05T19:05:45.881Z,12.40
2022-10-05T19:08:13.857Z,12.30
2022-10-05T19:10:45.057Z,12.30
2022-10-05T19:13:29.549Z,12.20
2022-10-05T19:15:57.804Z,12.20
2022-10-05T19:18:24.891Z,12.10
2022-10-05T19:21:12.797Z,12.00
2022-10-05T19:23:48.763Z,12.00
2022-10-05T19:26:20.458Z,11.90
2022-10-05T19:28:48.428Z,11.80
2022-10-05T19:31:16.978Z,11.80
2022-10-05T19:33:57.622Z,11.80
2022-10-05T19:36:35.407Z,11.80
2022-10-05T19:39:11.229Z,11.70
2022-10-05T19:41:47.524Z,11.60
2022-10-05T19:44:32.999Z,11.60
2022-10-05T19:47:06.888Z,11.50
2022-10-05T19:49:37.724Z,11.50
2022-10-05T19:52:08.989Z,11.40
2022-10-05T19:54:41.781Z,11.40
2022-10-05T19:57:17.079Z,11.30
2022-10-05T19:59:47.734Z,11.30
2022-10-05T20:02:15.506Z,11.30
2022-10-05T20:04:44.869Z,11.20
2022-10-05T20:07:17.691Z,11.20
2022-10-05T20:09:59.400Z,11.10
2022-10-05T20:12:52.548Z,11.00
2022-10-05T20:15:42.914Z,11.00
2022-10-05T20:18:55.513Z,11.00
2022-10-05T20:21:40.776Z,10.90
2022-10-05T20:24:21.121Z,10.90
2022-10-05T20:27:12.631Z,10.80
2022-10-05T20:29:44.502Z,10.80
2022-10-05T20:32:12.291Z,10.80
2022-10-05T20:34:41.368Z,10.70
2022-10-05T20:37:08.861Z,10.70
2022-10-05T20:39:35.632Z,10.70
2022-10-05T20:42:02.293Z,10.60
2022-10-05T20:44:30.231Z,10.60
2022-10-05T20:46:58.410Z,10.60
2022-10-05T20:49:26.410Z,10.50
2022-10-05T20:51:55.618Z,10.40
2022-10-05T20:54:22.802Z,10.40
2022-10-05T20:56:50.257Z,10.40
2022-10-05T20:59:18.509Z,10.30
2022-10-05T21:01:47.920Z,10.30
2022-10-05T21:04:21.261Z,10.30
2022-10-05T21:06:47.908Z,10.30
2022-10-05T21:09:15.403Z,10.20
2022-10-05T21:11:42.649Z,10.20
2022-10-05T21:14:10.021Z,10.20
2022-10-05T21:16:38.275Z,10.10
2022-10-05T21:19:12.299Z,10.10
2022-10-05T21:21:40.126Z,10.10
2022-10-05T21:24:07.115Z,10.00
2022-10-05T21:26:34.915Z,10.00
2022-10-05T21:29:03.598Z,10.00
2022-10-05T21:31:30.487Z,9.90
2022-10-05T21:33:57.115Z,9.90
2022-10-05T21:36:25.036Z,9.90
2022-10-05T21:38:52.120Z,9.90
2022-10-05T21:41:19.078Z,9.90
2022-10-05T21:43:45.763Z,9.90
2022-10-05T21:46:18.488Z,9.90
2022-10-05T21:48:45.148Z,9.90
2022-10-05T21:51:15.150Z,9.90
2022-10-05T21:53:45.707Z,9.90
2022-10-05T21:56:14.213Z,9.90
2022-10-05T21:58:42.333Z,9.90
2022-10-05T22:01:09.209Z,10.00
2022-10-05T22:03:36.003Z,10.00
2022-10-05T22:06:04.242Z,10.00
2022-10-05T22:08:32.447Z,10.00
2022-10-05T22:11:00.144Z,10.10
2022-10-05T22:13:27.161Z,10.10
2022-10-05T22:15:57.775Z,10.10
2022-10-05T22:18:25.249Z,10.10
2022-10-05T22:20:53.243Z,10.00
2022-10-05T22:23:21.918Z,10.00
2022-10-05T22:25:48.683Z,10.00
2022-10-05T22:28:15.832Z,10.00
2022-10-05T22:30:44.591Z,9.90
2022-10-05T22:33:12.226Z,9.90
2022-10-05T22:35:39.216Z,9.90
2022-10-05T22:38:05.870Z,9.80
2022-10-05T22:40:32.527Z,9.80
2022-10-05T22:42:59.197Z,9.80
2022-10-05T22:45:30.313Z,9.80
2022-10-05T22:47:59.082Z,9.90
2022-10-05T22:50:27.733Z,9.80
2022-10-05T22:52:54.400Z,9.90
2022-10-05T22:55:21.046Z,9.90
2022-10-05T22:57:49.174Z,10.00
2022-10-05T23:00:16.145Z,10.00
2022-10-05T23:02:43.473Z,10.00
2022-10-05T23:05:13.200Z,10.00
2022-10-05T23:07:40.911Z,10.00
2022-10-05T23:10:09.121Z,9.90
2022-10-05T23:12:36.839Z,10.00
2022-10-05T23:15:03.892Z,9.90
2022-10-05T23:17:31.190Z,10.00
2022-10-05T23:19:57.916Z,9.90
2022-10-05T23:22:25.315Z,9.90
2022-10-05T23:24:52.353Z,9.90
2022-10-05T23:27:19.367Z,9.90
2022-10-05T23:29:46.059Z,9.80
2022-10-05T23:32:13.749Z,9.80
2022-10-05T23:34:40.546Z,9.80
2022-10-05T23:37:07.195Z,9.80
2022-10-05T23:39:34.833Z,9.80
2022-10-05T23:42:01.554Z,9.80
2022-10-05T23:44:28.177Z,9.70
2022-10-05T23:46:54.921Z,9.70
2022-10-05T23:49:23.120Z,9.70
2022-10-05T23:51:49.724Z,9.60
2022-10-05T23:54:16.346Z,9.60
2022-10-05T23:56:42.926Z,9.50
2022-10-05T23:59:09.571Z,9.50
